createdAt,value
2023-03-29T00:00:59.862Z,0.74
2023-03-29T00:01:59.646Z,0.74
2023-03-29T00:02:59.654Z,0.76
2023-03-29T00:04:02.307Z,0.77
2023-03-29T00:04:59.607Z,0.77
2023-03-29T00:05:59.598Z,0.74
2023-03-29T00:06:59.596Z,0.74
2023-03-29T00:07:59.577Z,0.74
2023-03-29T00:08:59.565Z,0.74
2023-03-29T00:09:59.538Z,0.74
2023-03-29T00:10:59.723Z,0.75
2023-03-29T00:11:59.539Z,0.75
2023-03-29T00:12:59.519Z,0.72
2023-03-29T00:13:59.551Z,0.73
2023-03-29T00:14:59.516Z,0.72
2023-03-29T00:15:59.526Z,0.72
2023-03-29T00:16:59.575Z,0.72
2023-03-29T00:17:59.552Z,0.74
2023-03-29T00:18:59.495Z,0.73
2023-03-29T00:19:59.485Z,0.73
2023-03-29T00:20:59.741Z,0.74
2023-03-29T00:21:59.454Z,0.74
2023-03-29T00:22:59.456Z,0.73
2023-03-29T00:23:59.458Z,0.68
2023-03-29T00:24:59.465Z,0.71
2023-03-29T00:25:59.480Z,0.71
2023-03-29T00:26:59.490Z,0.71
2023-03-29T00:27:59.461Z,0.73
2023-03-29T00:28:59.423Z,0.71
2023-03-29T00:29:59.418Z,0.72
2023-03-29T00:30:59.591Z,0.71
2023-03-29T00:31:59.376Z,0.72
2023-03-29T00:32:59.387Z,0.71
2023-03-29T00:33:59.383Z,0.70
2023-03-29T00:34:59.376Z,0.70
2023-03-29T00:35:59.410Z,0.70
2023-03-29T00:36:59.371Z,0.69
2023-03-29T00:37:59.365Z,0.70
2023-03-29T00:38:59.356Z,0.70
2023-03-29T00:39:59.338Z,0.70
2023-03-29T00:40:59.530Z,0.71
2023-03-29T00:41:59.336Z,0.72
2023-03-29T00:42:59.355Z,0.71
2023-03-29T00:43:59.323Z,0.72
2023-03-29T00:44:59.297Z,0.75
2023-03-29T00:45:59.349Z,0.76
2023-03-29T00:46:59.317Z,0.77
2023-03-29T00:47:59.337Z,0.76
2023-03-29T00:48:59.279Z,0.78
2023-03-29T00:49:59.282Z,0.79
2023-03-29T00:50:59.408Z,0.79
2023-03-29T00:51:59.249Z,0.79
2023-03-29T00:52:59.279Z,0.82
2023-03-29T00:53:59.260Z,0.81
2023-03-29T00:54:59.249Z,0.81
2023-03-29T00:55:59.234Z,0.79
2023-03-29T00:56:59.268Z,0.78
2023-03-29T00:57:59.225Z,0.78
2023-03-29T00:58:59.230Z,0.77
2023-03-29T00:59:59.242Z,0.81
2023-03-29T01:00:59.337Z,0.79
2023-03-29T01:01:59.245Z,0.80
2023-03-29T01:02:59.263Z,0.77
2023-03-29T01:03:59.204Z,0.77
2023-03-29T01:04:59.182Z,0.79
2023-03-29T01:05:59.182Z,0.78
2023-03-29T01:06:59.221Z,0.76
2023-03-29T01:07:59.178Z,0.75
2023-03-29T01:08:59.158Z,0.76
2023-03-29T01:09:59.168Z,0.77
2023-03-29T01:10:59.224Z,0.78
2023-03-29T01:11:59.138Z,0.78
2023-03-29T01:12:59.120Z,0.77
2023-03-29T01:13:59.129Z,0.75
2023-03-29T01:14:59.120Z,0.76
2023-03-29T01:15:59.136Z,0.78
2023-03-29T01:16:59.105Z,0.75
2023-03-29T01:17:59.139Z,0.75
2023-03-29T01:18:59.123Z,0.75
2023-03-29T01:19:59.077Z,0.77
2023-03-29T01:20:59.118Z,0.78
2023-03-29T01:21:59.092Z,0.78
2023-03-29T01:24:18.297Z,0.50
2023-03-29T01:25:18.318Z,0.50
2023-03-29T01:26:18.305Z,0.50
2023-03-29T01:27:18.249Z,0.50
2023-03-29T01:28:18.262Z,0.50
2023-03-29T01:29:18.265Z,0.50
2023-03-29T01:30:18.280Z,0.50
2023-03-29T01:31:18.276Z,0.50
2023-03-29T01:32:18.239Z,0.52
2023-03-29T01:33:18.212Z,0.52
2023-03-29T01:34:18.206Z,0.51
2023-03-29T01:35:18.238Z,0.52
2023-03-29T01:36:18.282Z,0.52
2023-03-29T01:37:18.192Z,0.53
2023-03-29T01:38:18.202Z,0.50
2023-03-29T01:39:18.219Z,0.50
2023-03-29T01:40:18.182Z,0.50
2023-03-29T01:41:18.181Z,0.52
2023-03-29T01:42:18.190Z,0.51
2023-03-29T01:43:18.162Z,0.51
2023-03-29T01:44:18.160Z,0.50
2023-03-29T01:45:18.146Z,0.52
2023-03-29T01:46:18.264Z,0.51
2023-03-29T01:47:18.138Z,0.50
2023-03-29T01:48:18.135Z,0.50
2023-03-29T01:49:18.108Z,0.50
2023-03-29T01:50:18.124Z,0.53
2023-03-29T01:51:18.116Z,0.52
2023-03-29T01:52:18.104Z,0.51
2023-03-29T01:53:18.156Z,0.50
2023-03-29T01:54:18.139Z,0.50
2023-03-29T01:55:18.101Z,0.52
2023-03-29T01:56:18.086Z,0.51
2023-03-29T01:57:18.092Z,0.52
2023-03-29T01:58:18.070Z,0.51
2023-03-29T01:59:18.053Z,0.51
2023-03-29T02:00:18.116Z,0.51
2023-03-29T02:01:18.072Z,0.52
2023-03-29T02:02:18.061Z,0.57
2023-03-29T02:03:18.125Z,0.54
2023-03-29T02:04:18.022Z,0.55
2023-03-29T02:05:18.015Z,0.53
2023-03-29T02:06:18.042Z,0.53
2023-03-29T02:07:18.023Z,0.51
2023-03-29T02:08:18.000Z,0.52
2023-03-29T02:09:17.997Z,0.52
2023-03-29T02:10:18.008Z,0.53
2023-03-29T02:11:17.968Z,0.55
2023-03-29T02:12:17.977Z,0.55
2023-03-29T02:13:17.980Z,0.55
2023-03-29T02:14:17.983Z,0.54
2023-03-29T02:15:17.971Z,0.56
2023-03-29T02:16:17.947Z,0.56
2023-03-29T02:17:17.953Z,0.57
2023-03-29T02:18:17.936Z,0.57
2023-03-29T02:19:17.940Z,0.57
2023-03-29T02:20:17.924Z,0.58
2023-03-29T02:21:17.924Z,0.57
2023-03-29T02:22:17.927Z,0.59
2023-03-29T02:23:17.891Z,0.59
2023-03-29T02:24:17.896Z,0.60
2023-03-29T02:25:17.867Z,0.58
2023-03-29T02:26:17.877Z,0.56
2023-03-29T02:27:17.897Z,0.56
2023-03-29T02:28:17.860Z,0.57
2023-03-29T02:29:17.870Z,0.57
2023-03-29T02:30:17.877Z,0.58
2023-03-29T02:31:17.885Z,0.57
2023-03-29T02:32:17.832Z,0.55
2023-03-29T02:33:17.809Z,0.55
2023-03-29T02:34:17.815Z,0.53
2023-03-29T02:35:17.835Z,0.52
2023-03-29T02:36:17.917Z,0.52
2023-03-29T02:37:17.814Z,0.52
2023-03-29T02:38:17.814Z,0.51
2023-03-29T02:39:17.815Z,0.51
2023-03-29T02:40:17.810Z,0.52
2023-03-29T02:41:17.811Z,0.53
2023-03-29T02:42:17.766Z,0.52
2023-03-29T02:43:17.819Z,0.53
2023-03-29T02:44:17.751Z,0.54
2023-03-29T02:45:17.757Z,0.55
2023-03-29T02:46:17.760Z,0.55
2023-03-29T02:47:17.742Z,0.55
2023-03-29T02:48:17.787Z,0.55
2023-03-29T02:49:17.761Z,0.56
2023-03-29T02:50:17.727Z,0.56
2023-03-29T02:51:19.891Z,0.55
2023-03-29T02:52:17.827Z,0.57
2023-03-29T02:53:17.877Z,0.57
2023-03-29T02:54:17.893Z,0.57
2023-03-29T02:55:17.888Z,0.57
2023-03-29T02:56:17.879Z,0.57
2023-03-29T02:57:18.001Z,0.58
2023-03-29T02:58:17.920Z,0.60
2023-03-29T02:59:17.973Z,0.60
2023-03-29T03:00:17.954Z,0.60
2023-03-29T03:01:17.986Z,0.61
2023-03-29T03:02:18.030Z,0.62
2023-03-29T03:03:18.075Z,0.62
2023-03-29T03:04:18.005Z,0.63
2023-03-29T03:05:17.985Z,0.63
2023-03-29T03:06:18.018Z,0.65
2023-03-29T03:07:18.035Z,0.70
2023-03-29T03:08:18.031Z,0.72
2023-03-29T03:09:17.998Z,0.74
2023-03-29T03:10:18.012Z,0.74
2023-03-29T03:11:18.028Z,0.72
2023-03-29T03:12:18.037Z,0.75
2023-03-29T03:13:18.062Z,0.76
2023-03-29T03:14:18.100Z,0.76
2023-03-29T03:15:18.147Z,0.75
2023-03-29T03:16:18.281Z,0.74
2023-03-29T03:17:18.256Z,0.79
2023-03-29T03:18:18.348Z,0.76
2023-03-29T03:19:18.392Z,0.75
2023-03-29T03:20:18.489Z,0.78
2023-03-29T03:21:18.517Z,0.80
2023-03-29T03:22:18.537Z,0.79
2023-03-29T03:23:18.605Z,0.79
2023-03-29T03:24:18.720Z,0.80
2023-03-29T03:25:18.732Z,0.82
2023-03-29T03:26:18.787Z,0.84
2023-03-29T03:27:18.828Z,0.84
2023-03-29T03:28:18.876Z,0.86
2023-03-29T03:29:18.904Z,0.84
2023-03-29T03:30:18.953Z,0.88
2023-03-29T03:31:19.006Z,0.86
2023-03-29T03:32:19.020Z,0.87
2023-03-29T03:33:19.072Z,0.88
2023-03-29T03:34:19.085Z,0.88
2023-03-29T03:35:19.162Z,0.89
2023-03-29T03:36:19.177Z,0.87
2023-03-29T03:37:19.219Z,0.87
2023-03-29T03:38:19.209Z,0.88
2023-03-29T03:39:19.281Z,0.86
2023-03-29T03:40:19.296Z,0.88
2023-03-29T03:41:19.287Z,0.88
2023-03-29T03:42:19.335Z,0.86
2023-03-29T03:43:19.345Z,0.88
2023-03-29T03:44:19.372Z,0.85
2023-03-29T03:45:19.400Z,0.86
2023-03-29T03:46:19.440Z,0.90
2023-03-29T03:47:19.441Z,0.90
2023-03-29T03:48:19.467Z,0.88
2023-03-29T03:49:19.558Z,0.89
2023-03-29T03:50:19.543Z,0.94
2023-03-29T03:51:19.555Z,0.93
2023-03-29T03:52:19.540Z,0.94
2023-03-29T03:53:19.615Z,0.95
2023-03-29T03:54:19.623Z,0.93
2023-03-29T03:55:19.639Z,0.94
2023-03-29T03:56:19.641Z,0.97
2023-03-29T03:57:19.713Z,0.99
2023-03-29T03:58:19.688Z,0.99
2023-03-29T03:59:19.683Z,0.98
2023-03-29T04:00:19.786Z,1.01
2023-03-29T04:01:19.732Z,1.03
2023-03-29T04:02:19.814Z,1.04
2023-03-29T04:03:19.914Z,1.06
2023-03-29T04:04:19.874Z,1.06
2023-03-29T04:05:19.844Z,1.06
2023-03-29T04:06:19.832Z,1.09
2023-03-29T04:07:19.862Z,1.08
2023-03-29T04:08:19.897Z,1.11
2023-03-29T04:09:19.971Z,1.11
2023-03-29T04:10:19.914Z,1.15
2023-03-29T04:11:19.920Z,1.15
2023-03-29T04:12:19.925Z,1.17
2023-03-29T04:13:19.955Z,1.17
2023-03-29T04:14:19.980Z,1.21
2023-03-29T04:15:19.984Z,1.20
2023-03-29T04:16:20.024Z,1.20
2023-03-29T04:17:20.084Z,1.20
2023-03-29T04:18:20.146Z,1.21
2023-03-29T04:19:20.019Z,1.22
2023-03-29T04:20:20.001Z,1.23
2023-03-29T04:21:21.278Z,1.22
2023-03-29T04:22:20.023Z,1.25
2023-03-29T04:23:20.003Z,1.26
2023-03-29T04:24:20.021Z,1.24
2023-03-29T04:25:20.035Z,1.26
2023-03-29T04:26:20.049Z,1.29
2023-03-29T04:27:20.033Z,1.28
2023-03-29T04:28:20.053Z,1.27
2023-03-29T04:29:20.037Z,1.31
2023-03-29T04:30:20.018Z,1.31
2023-03-29T04:31:20.081Z,1.30
2023-03-29T04:32:20.056Z,1.28
2023-03-29T04:33:20.067Z,1.24
2023-03-29T04:34:20.080Z,1.22
2023-03-29T04:35:20.054Z,1.25
2023-03-29T04:36:20.102Z,1.21
2023-03-29T04:37:20.065Z,1.27
2023-03-29T04:38:20.164Z,1.30
2023-03-29T04:39:20.088Z,1.26
2023-03-29T04:40:20.112Z,1.27
2023-03-29T04:41:20.125Z,1.30
2023-03-29T04:42:20.142Z,1.27
2023-03-29T04:43:20.123Z,1.24
2023-03-29T04:44:20.130Z,1.24
2023-03-29T04:45:20.162Z,1.24
2023-03-29T04:46:20.227Z,1.21
2023-03-29T04:47:20.159Z,1.22
2023-03-29T04:48:20.149Z,1.23
2023-03-29T04:49:20.130Z,1.25
2023-03-29T04:50:20.163Z,1.23
2023-03-29T04:51:20.132Z,1.20
2023-03-29T04:52:21.363Z,1.19
2023-03-29T04:53:20.153Z,1.18
2023-03-29T04:54:20.137Z,1.18
2023-03-29T04:55:20.147Z,1.22
2023-03-29T04:56:20.147Z,1.21
2023-03-29T04:57:20.149Z,1.20
2023-03-29T04:58:22.482Z,1.21
2023-03-29T04:59:20.111Z,1.22
2023-03-29T05:00:20.207Z,1.22
2023-03-29T05:01:27.170Z,1.16
2023-03-29T05:02:20.131Z,1.17
2023-03-29T05:03:20.105Z,1.18
2023-03-29T05:04:20.152Z,1.19
2023-03-29T05:05:20.080Z,1.20
2023-03-29T05:06:20.081Z,1.22
2023-03-29T05:07:20.057Z,1.21
2023-03-29T05:08:20.054Z,1.21
2023-03-29T05:09:20.053Z,1.17
2023-03-29T05:10:20.031Z,1.21
2023-03-29T05:11:20.136Z,1.22
2023-03-29T05:12:20.013Z,1.25
2023-03-29T05:13:20.031Z,1.28
2023-03-29T05:14:20.035Z,1.24
2023-03-29T05:15:20.008Z,1.25
2023-03-29T05:16:20.097Z,1.25
2023-03-29T05:17:19.990Z,1.29
2023-03-29T05:18:19.990Z,1.30
2023-03-29T05:19:19.973Z,1.30
2023-03-29T05:20:19.970Z,1.34
2023-03-29T05:21:19.949Z,1.12
2023-03-29T05:22:19.996Z,0.91
2023-03-29T05:23:19.956Z,0.93
2023-03-29T05:24:20.001Z,0.89
2023-03-29T05:25:19.959Z,0.91
2023-03-29T05:26:19.944Z,0.98
2023-03-29T05:27:19.933Z,0.94
2023-03-29T05:28:19.933Z,0.96
2023-03-29T05:29:19.897Z,0.89
2023-03-29T05:30:19.914Z,0.85
2023-03-29T05:31:20.002Z,0.95
2023-03-29T05:32:19.926Z,1.17
2023-03-29T05:33:19.896Z,1.40
2023-03-29T05:34:19.910Z,1.70
2023-03-29T05:35:19.894Z,1.91
2023-03-29T05:36:19.856Z,2.03
2023-03-29T05:37:19.873Z,2.06
2023-03-29T05:38:19.899Z,2.15
2023-03-29T05:39:19.858Z,2.34
2023-03-29T05:40:19.845Z,2.58
2023-03-29T05:41:19.820Z,2.71
2023-03-29T05:42:19.835Z,3.28
2023-03-29T05:43:19.814Z,2.90
2023-03-29T05:44:20.132Z,3.99
2023-03-29T05:45:19.826Z,4.05
2023-03-29T05:46:26.852Z,4.89
2023-03-29T05:47:19.845Z,4.90
2023-03-29T05:48:19.787Z,4.93
2023-03-29T05:49:20.182Z,5.08
2023-03-29T05:50:19.794Z,5.15
2023-03-29T05:51:19.807Z,5.94
2023-03-29T05:52:19.825Z,6.35
2023-03-29T05:53:19.782Z,7.15
2023-03-29T05:54:19.777Z,7.36
2023-03-29T05:55:19.750Z,7.42
2023-03-29T05:56:19.804Z,7.82
2023-03-29T05:57:19.820Z,8.93
2023-03-29T05:58:19.737Z,9.39
2023-03-29T05:59:19.769Z,10.25
2023-03-29T06:00:19.715Z,10.36
2023-03-29T06:01:19.735Z,11.69
2023-03-29T06:02:19.773Z,12.08
2023-03-29T06:03:21.094Z,13.03
2023-03-29T06:04:19.810Z,13.05
2023-03-29T06:05:19.700Z,13.22
2023-03-29T06:06:19.699Z,13.76
2023-03-29T06:07:19.738Z,14.14
2023-03-29T06:08:19.671Z,14.69
2023-03-29T06:09:19.704Z,14.98
2023-03-29T06:10:19.648Z,15.76
2023-03-29T06:11:19.719Z,15.22
2023-03-29T06:12:19.769Z,15.46
2023-03-29T06:13:19.844Z,19.38
2023-03-29T06:14:19.871Z,18.72
2023-03-29T06:15:19.943Z,21.14
2023-03-29T06:16:20.035Z,22.49
2023-03-29T06:17:20.097Z,21.35
2023-03-29T06:18:20.111Z,19.95
2023-03-29T06:19:20.082Z,20.77
2023-03-29T06:20:20.173Z,20.72
2023-03-29T06:21:20.167Z,20.10
2023-03-29T06:22:21.435Z,20.22
2023-03-29T06:23:20.244Z,23.13
2023-03-29T06:24:20.297Z,24.57
2023-03-29T06:25:20.305Z,21.36
2023-03-29T06:26:20.312Z,23.36
2023-03-29T06:27:20.349Z,23.01
2023-03-29T06:28:20.378Z,22.04
2023-03-29T06:29:20.403Z,22.33
2023-03-29T06:30:20.408Z,20.45
2023-03-29T06:31:20.438Z,22.39
2023-03-29T06:32:20.455Z,23.12
2023-03-29T06:33:20.492Z,22.27
2023-03-29T06:34:20.428Z,21.31
2023-03-29T06:35:20.451Z,22.09
2023-03-29T06:36:20.490Z,22.58
2023-03-29T06:37:20.490Z,21.57
2023-03-29T06:38:20.503Z,20.85
2023-03-29T06:39:20.538Z,19.71
2023-03-29T06:40:20.568Z,16.68
2023-03-29T06:41:20.594Z,16.51
2023-03-29T06:42:21.880Z,16.49
2023-03-29T06:43:20.635Z,15.96
2023-03-29T06:44:20.690Z,16.75
2023-03-29T06:45:23.822Z,16.27
2023-03-29T06:46:20.727Z,17.49
2023-03-29T06:47:20.742Z,17.70
2023-03-29T06:48:20.663Z,18.20
2023-03-29T06:49:20.682Z,20.99
2023-03-29T06:50:20.683Z,19.11
2023-03-29T06:51:23.223Z,18.27
2023-03-29T06:52:20.643Z,18.39
2023-03-29T06:53:20.858Z,18.74
2023-03-29T06:54:20.674Z,18.99
2023-03-29T06:55:20.625Z,20.24
2023-03-29T06:56:20.641Z,21.58
2023-03-29T06:57:20.634Z,20.18
2023-03-29T06:58:20.653Z,19.94
2023-03-29T06:59:20.604Z,19.72
2023-03-29T07:00:20.616Z,21.04
2023-03-29T07:01:20.623Z,18.70
2023-03-29T07:02:20.611Z,17.87
2023-03-29T07:03:20.624Z,16.43
2023-03-29T07:04:20.626Z,12.84
2023-03-29T07:05:20.584Z,13.24
2023-03-29T07:06:20.651Z,13.48
2023-03-29T07:07:20.720Z,12.80
2023-03-29T07:08:20.603Z,12.35
2023-03-29T07:09:20.535Z,12.22
2023-03-29T07:10:20.551Z,11.73
2023-03-29T07:11:20.564Z,11.03
2023-03-29T07:12:20.549Z,11.24
2023-03-29T07:13:20.533Z,11.18
2023-03-29T07:14:20.548Z,11.01
2023-03-29T07:15:20.515Z,10.99
2023-03-29T07:16:20.623Z,10.20
2023-03-29T07:17:20.563Z,9.08
2023-03-29T07:18:20.505Z,9.27
2023-03-29T07:19:20.497Z,8.56
2023-03-29T07:20:20.469Z,8.07
2023-03-29T07:21:20.591Z,7.83
2023-03-29T07:22:20.458Z,7.51
2023-03-29T07:23:20.437Z,7.18
2023-03-29T07:24:20.445Z,7.92
2023-03-29T07:25:20.429Z,7.59
2023-03-29T07:26:28.969Z,6.94
2023-03-29T07:27:21.437Z,6.96
2023-03-29T07:28:20.422Z,6.96
2023-03-29T07:29:20.434Z,6.86
2023-03-29T07:30:20.384Z,7.01
2023-03-29T07:31:20.389Z,8.19
2023-03-29T07:32:20.434Z,7.66
2023-03-29T07:33:20.410Z,9.41
2023-03-29T07:34:20.362Z,8.74
2023-03-29T07:35:20.386Z,8.63
2023-03-29T07:36:20.402Z,8.36
2023-03-29T07:37:20.342Z,8.43
2023-03-29T07:38:20.328Z,8.42
2023-03-29T07:39:20.332Z,8.05
2023-03-29T07:40:20.354Z,7.46
2023-03-29T07:41:20.364Z,7.23
2023-03-29T07:42:20.348Z,7.16
2023-03-29T07:43:20.378Z,7.23
2023-03-29T07:44:20.361Z,7.67
2023-03-29T07:45:20.697Z,7.76
2023-03-29T07:46:21.441Z,7.80
2023-03-29T07:47:20.384Z,7.89
2023-03-29T07:48:20.417Z,8.03
2023-03-29T07:49:22.107Z,7.95
2023-03-29T07:50:20.449Z,8.02
2023-03-29T07:51:20.517Z,7.85
2023-03-29T07:52:21.371Z,7.91
2023-03-29T07:53:20.594Z,7.62
2023-03-29T07:54:20.696Z,7.42
2023-03-29T07:55:20.744Z,7.49
2023-03-29T07:56:20.768Z,7.28
2023-03-29T07:57:20.835Z,7.06
2023-03-29T07:58:20.787Z,7.02
2023-03-29T07:59:20.796Z,6.89
2023-03-29T08:00:21.663Z,6.74
2023-03-29T08:01:20.890Z,6.57
2023-03-29T08:02:20.869Z,6.49
2023-03-29T08:03:20.977Z,6.49
2023-03-29T08:04:20.994Z,6.31
2023-03-29T08:05:26.256Z,6.26
2023-03-29T08:06:21.845Z,6.27
2023-03-29T08:07:20.891Z,6.18
2023-03-29T08:08:20.859Z,6.00
2023-03-29T08:09:20.847Z,6.02
2023-03-29T08:10:20.839Z,5.91
2023-03-29T08:11:20.821Z,5.68
2023-03-29T08:12:22.054Z,5.66
2023-03-29T08:13:20.842Z,5.68
2023-03-29T08:14:20.821Z,5.47
2023-03-29T08:15:20.816Z,5.46
2023-03-29T08:16:20.822Z,5.31
2023-03-29T08:17:20.812Z,5.31
2023-03-29T08:18:20.779Z,5.26
2023-03-29T08:19:20.830Z,5.10
2023-03-29T08:20:21.275Z,5.11
2023-03-29T08:21:20.790Z,5.05
2023-03-29T08:22:20.762Z,4.97
2023-03-29T08:23:20.756Z,4.99
2023-03-29T08:24:21.136Z,4.97
2023-03-29T08:25:20.749Z,4.87
2023-03-29T08:26:20.733Z,4.78
2023-03-29T08:27:20.731Z,4.72
2023-03-29T08:28:20.684Z,4.69
2023-03-29T08:29:20.750Z,4.61
2023-03-29T08:30:20.843Z,4.53
2023-03-29T08:31:20.722Z,4.43
2023-03-29T08:32:20.713Z,4.39
2023-03-29T08:33:20.687Z,4.34
2023-03-29T08:34:20.685Z,4.32
2023-03-29T08:35:20.719Z,4.23
2023-03-29T08:36:20.695Z,4.17
2023-03-29T08:37:20.671Z,4.52
2023-03-29T08:38:20.623Z,3.79
2023-03-29T08:39:20.642Z,3.30
2023-03-29T08:40:20.652Z,2.41
2023-03-29T08:41:20.628Z,2.09
2023-03-29T08:42:20.635Z,1.62
2023-03-29T08:43:20.630Z,1.43
2023-03-29T08:44:20.597Z,1.42
2023-03-29T08:45:20.606Z,1.60
2023-03-29T08:46:20.613Z,1.51
2023-03-29T08:47:20.609Z,1.70
2023-03-29T08:48:20.575Z,1.45
2023-03-29T08:49:20.569Z,1.32
2023-03-29T08:50:20.583Z,1.18
2023-03-29T08:51:20.549Z,1.06
2023-03-29T08:52:20.547Z,1.05
2023-03-29T08:53:20.563Z,1.12
2023-03-29T08:54:20.554Z,1.19
2023-03-29T08:55:20.741Z,1.25
2023-03-29T08:56:20.521Z,1.26
2023-03-29T08:57:20.608Z,1.11
2023-03-29T08:58:20.504Z,1.07
2023-03-29T08:59:20.550Z,1.07
2023-03-29T09:00:20.567Z,1.02
2023-03-29T09:01:20.499Z,0.96
2023-03-29T09:02:20.547Z,0.98
2023-03-29T09:03:20.646Z,0.93
2023-03-29T09:04:20.470Z,0.87
2023-03-29T09:05:20.494Z,0.81
2023-03-29T09:06:20.475Z,0.76
2023-03-29T09:07:20.469Z,0.70
2023-03-29T09:08:20.416Z,0.65
2023-03-29T09:09:20.436Z,0.65
2023-03-29T09:10:20.416Z,0.67
2023-03-29T09:11:20.421Z,0.68
2023-03-29T09:12:20.417Z,0.70
2023-03-29T09:13:20.454Z,0.70
2023-03-29T09:14:20.403Z,0.72
2023-03-29T09:15:20.364Z,0.70
2023-03-29T09:16:20.434Z,0.68
2023-03-29T09:17:20.414Z,0.65
2023-03-29T09:18:20.463Z,0.61
2023-03-29T09:19:20.518Z,0.60
2023-03-29T09:20:20.745Z,0.56
2023-03-29T09:21:20.613Z,0.52
2023-03-29T09:22:20.640Z,0.52
2023-03-29T09:23:20.665Z,0.51
2023-03-29T09:24:20.705Z,0.50
2023-03-29T09:25:21.321Z,0.51
2023-03-29T09:26:20.673Z,0.50
2023-03-29T09:27:20.671Z,0.50
2023-03-29T09:28:20.660Z,0.51
2023-03-29T09:29:20.700Z,0.51
2023-03-29T09:30:20.735Z,0.50
2023-03-29T09:31:20.723Z,0.51
2023-03-29T09:32:20.719Z,0.52
2023-03-29T09:33:20.709Z,0.51
2023-03-29T09:34:20.763Z,0.50
2023-03-29T09:35:20.725Z,0.50
2023-03-29T09:36:20.796Z,0.52
2023-03-29T09:37:20.766Z,0.52
2023-03-29T09:38:20.755Z,0.52
2023-03-29T09:39:20.801Z,0.50
2023-03-29T09:40:20.814Z,0.50
2023-03-29T09:41:20.818Z,0.51
2023-03-29T09:42:20.824Z,0.43
2023-03-29T09:43:20.862Z,0.34
2023-03-29T09:44:30.738Z,0.34
2023-03-29T09:45:21.911Z,0.35
2023-03-29T09:46:21.028Z,0.38
2023-03-29T09:47:20.908Z,0.50
2023-03-29T09:48:20.896Z,0.76
2023-03-29T09:49:20.912Z,1.66
2023-03-29T09:50:31.032Z,2.53
2023-03-29T09:51:21.872Z,2.54
2023-03-29T09:52:20.873Z,2.67
2023-03-29T09:53:20.911Z,3.03
2023-03-29T09:54:20.879Z,3.62
2023-03-29T09:55:20.864Z,5.10
2023-03-29T09:56:20.834Z,5.69
2023-03-29T09:57:20.887Z,6.17
2023-03-29T09:58:20.831Z,6.72
2023-03-29T09:59:20.908Z,7.40
2023-03-29T10:00:20.812Z,7.96
2023-03-29T10:01:20.885Z,8.88
2023-03-29T10:02:21.940Z,8.93
2023-03-29T10:03:21.829Z,8.97
2023-03-29T10:04:20.913Z,9.33
2023-03-29T10:05:20.797Z,10.20
2023-03-29T10:06:20.778Z,11.40
2023-03-29T10:07:20.834Z,14.15
2023-03-29T10:08:20.843Z,15.31
2023-03-29T10:09:20.851Z,15.45
2023-03-29T10:10:20.745Z,16.54
2023-03-29T10:11:20.761Z,17.23
2023-03-29T10:12:20.802Z,20.14
2023-03-29T10:13:21.799Z,20.23
2023-03-29T10:14:20.729Z,20.52
2023-03-29T10:15:29.054Z,21.12
2023-03-29T10:16:21.770Z,20.30
2023-03-29T10:17:20.730Z,20.88
2023-03-29T10:18:20.776Z,22.03
2023-03-29T10:19:20.718Z,25.53
2023-03-29T10:20:20.702Z,27.61
2023-03-29T10:21:20.756Z,28.33
2023-03-29T10:22:20.644Z,28.63
2023-03-29T10:23:20.659Z,29.94
2023-03-29T10:24:20.651Z,30.51
2023-03-29T10:25:20.631Z,32.07
2023-03-29T10:26:20.723Z,31.94
2023-03-29T10:27:20.926Z,34.29
2023-03-29T10:28:20.944Z,35.65
2023-03-29T10:29:21.074Z,37.47
2023-03-29T10:30:21.124Z,41.13
2023-03-29T10:31:21.337Z,38.38
2023-03-29T10:32:21.139Z,40.07
2023-03-29T10:33:21.153Z,42.98
2023-03-29T10:34:21.184Z,40.74
2023-03-29T10:35:21.169Z,33.00
2023-03-29T10:36:21.285Z,30.10
2023-03-29T10:37:21.299Z,23.71
2023-03-29T10:38:21.244Z,18.81
2023-03-29T10:39:21.236Z,14.87
2023-03-29T10:40:21.211Z,15.40
2023-03-29T10:41:21.229Z,15.52
2023-03-29T10:42:21.246Z,16.02
2023-03-29T10:43:21.245Z,16.48
2023-03-29T10:44:21.245Z,16.75
2023-03-29T10:45:21.224Z,15.68
2023-03-29T10:46:21.299Z,14.63
2023-03-29T10:47:21.265Z,15.42
2023-03-29T10:48:21.307Z,15.17
2023-03-29T10:49:21.343Z,14.82
2023-03-29T10:50:21.394Z,14.08
2023-03-29T10:51:21.815Z,13.86
2023-03-29T10:52:21.482Z,13.06
2023-03-29T10:53:21.519Z,12.65
2023-03-29T10:54:21.548Z,12.93
2023-03-29T10:55:21.595Z,12.59
2023-03-29T10:56:21.655Z,12.21
2023-03-29T10:57:22.937Z,11.69
2023-03-29T10:58:21.774Z,11.34
2023-03-29T10:59:21.828Z,11.26
2023-03-29T11:00:21.922Z,11.25
2023-03-29T11:01:22.014Z,11.23
2023-03-29T11:02:22.003Z,11.16
2023-03-29T11:03:22.095Z,10.85
2023-03-29T11:04:22.103Z,10.62
2023-03-29T11:05:22.147Z,10.89
2023-03-29T11:06:22.267Z,10.81
2023-03-29T11:07:22.274Z,11.06
2023-03-29T11:08:22.295Z,10.74
2023-03-29T11:09:22.387Z,10.84
2023-03-29T11:10:22.406Z,10.56
2023-03-29T11:11:22.491Z,10.53
2023-03-29T11:12:22.505Z,10.02
2023-03-29T11:13:22.503Z,10.11
2023-03-29T11:14:22.533Z,10.25
2023-03-29T11:15:22.556Z,9.74
2023-03-29T11:16:22.735Z,9.09
2023-03-29T11:17:22.659Z,8.86
2023-03-29T11:18:22.635Z,8.65
2023-03-29T11:19:22.716Z,8.63
2023-03-29T11:20:22.721Z,8.41
2023-03-29T11:21:22.799Z,8.36
2023-03-29T11:22:22.780Z,8.27
2023-03-29T11:23:22.792Z,8.46
2023-03-29T11:24:22.827Z,8.29
2023-03-29T11:25:22.861Z,8.24
2023-03-29T11:26:23.320Z,8.33
2023-03-29T11:27:22.863Z,8.19
2023-03-29T11:28:22.876Z,6.78
2023-03-29T11:29:22.893Z,6.33
2023-03-29T11:30:22.858Z,5.52
2023-03-29T11:31:23.350Z,4.88
2023-03-29T11:32:22.933Z,4.53
2023-03-29T11:33:22.866Z,4.51
2023-03-29T11:34:22.929Z,4.77
2023-03-29T11:35:22.929Z,4.90
2023-03-29T11:36:23.336Z,5.17
2023-03-29T11:37:22.938Z,5.17
2023-03-29T11:38:22.948Z,5.17
2023-03-29T11:39:22.953Z,5.28
2023-03-29T11:40:23.822Z,5.05
2023-03-29T11:41:22.964Z,4.82
2023-03-29T11:42:22.983Z,4.52
2023-03-29T11:43:22.995Z,4.36
2023-03-29T11:44:22.985Z,4.43
2023-03-29T11:45:22.989Z,4.26
2023-03-29T11:46:22.991Z,4.22
2023-03-29T11:47:23.081Z,4.51
2023-03-29T11:48:23.012Z,4.50
2023-03-29T11:49:23.026Z,4.37
2023-03-29T11:50:23.025Z,4.05
2023-03-29T11:51:23.025Z,3.73
2023-03-29T11:52:23.037Z,3.76
2023-03-29T11:53:23.053Z,4.00
2023-03-29T11:54:23.050Z,4.20
2023-03-29T11:55:23.032Z,3.92
2023-03-29T11:56:23.075Z,4.12
2023-03-29T11:57:23.103Z,4.18
2023-03-29T11:58:23.095Z,4.09
2023-03-29T11:59:23.053Z,4.25
2023-03-29T12:00:23.062Z,4.32
2023-03-29T12:01:23.048Z,4.24
2023-03-29T12:02:23.137Z,4.25
2023-03-29T12:03:23.179Z,4.18
2023-03-29T12:04:23.162Z,4.23
2023-03-29T12:05:23.117Z,4.20
2023-03-29T12:06:23.134Z,4.07
2023-03-29T12:07:23.142Z,4.01
2023-03-29T12:08:23.114Z,3.69
2023-03-29T12:09:23.116Z,2.52
2023-03-29T12:10:23.101Z,1.74
2023-03-29T12:11:23.138Z,1.35
2023-03-29T12:12:23.182Z,1.12
2023-03-29T12:13:23.174Z,1.09
2023-03-29T12:14:24.077Z,0.97
2023-03-29T12:15:23.213Z,1.05
2023-03-29T12:16:23.322Z,1.08
2023-03-29T12:17:23.326Z,1.83
2023-03-29T12:18:23.308Z,2.58
2023-03-29T12:19:23.307Z,2.92
2023-03-29T12:20:23.363Z,3.89
2023-03-29T12:21:23.390Z,5.77
2023-03-29T12:22:23.369Z,5.47
2023-03-29T12:23:23.432Z,7.87
2023-03-29T12:24:23.465Z,11.76
2023-03-29T12:25:23.520Z,14.51
2023-03-29T12:26:23.506Z,32.88
2023-03-29T12:27:23.481Z,12.66
2023-03-29T12:28:23.529Z,8.55
2023-03-29T12:29:23.526Z,7.24
2023-03-29T12:30:23.557Z,7.75
2023-03-29T12:31:23.612Z,11.13
2023-03-29T12:32:23.597Z,11.30
2023-03-29T12:33:23.594Z,9.81
2023-03-29T12:34:23.602Z,10.25
2023-03-29T12:35:23.584Z,11.72
2023-03-29T12:36:23.612Z,11.98
2023-03-29T12:37:23.619Z,12.75
2023-03-29T12:38:23.592Z,13.44
2023-03-29T12:39:23.641Z,13.69
2023-03-29T12:40:23.611Z,12.09
2023-03-29T12:41:23.635Z,13.57
2023-03-29T12:42:23.647Z,13.51
2023-03-29T12:43:23.640Z,13.57
2023-03-29T12:44:23.700Z,13.36
2023-03-29T12:45:23.669Z,13.53
2023-03-29T12:46:23.725Z,13.33
2023-03-29T12:47:23.739Z,14.12
2023-03-29T12:48:23.683Z,14.23
2023-03-29T12:49:23.737Z,14.16
2023-03-29T12:50:23.750Z,13.76
2023-03-29T12:51:23.719Z,10.95
2023-03-29T12:52:23.724Z,12.03
2023-03-29T12:53:23.767Z,12.94
2023-03-29T12:54:25.038Z,12.37
2023-03-29T12:55:23.726Z,12.81
2023-03-29T12:56:23.918Z,12.28
2023-03-29T12:57:23.791Z,12.09
2023-03-29T12:58:23.742Z,12.33
2023-03-29T12:59:23.761Z,12.17
2023-03-29T13:00:23.716Z,12.44
2023-03-29T13:01:23.950Z,12.25
2023-03-29T13:02:23.794Z,12.12
2023-03-29T13:03:23.764Z,11.85
2023-03-29T13:04:23.736Z,11.56
2023-03-29T13:05:23.712Z,10.85
2023-03-29T13:06:23.675Z,9.40
2023-03-29T13:07:23.723Z,9.84
2023-03-29T13:08:23.664Z,9.01
2023-03-29T13:09:23.666Z,10.18
2023-03-29T13:10:23.693Z,10.70
2023-03-29T13:11:23.684Z,10.48
2023-03-29T13:12:23.650Z,10.37
2023-03-29T13:13:23.628Z,10.61
2023-03-29T13:14:23.620Z,10.63